createdAt,value
2023-03-16T00:02:56.240Z,100519.34
2023-03-16T00:05:58.651Z,100516.50
2023-03-16T00:09:00.985Z,100520.78
2023-03-16T00:12:03.792Z,100525.44
2023-03-16T00:15:06.870Z,100506.56
2023-03-16T00:18:09.274Z,100523.06
2023-03-16T00:21:14.099Z,100536.31
2023-03-16T00:24:18.758Z,100528.34
2023-03-16T00:27:22.977Z,100538.53
2023-03-16T00:30:27.480Z,100540.03
2023-03-16T00:33:30.159Z,100528.59
2023-03-16T00:36:33.984Z,100540.41
2023-03-16T00:39:36.424Z,100534.41
2023-03-16T00:42:38.800Z,100530.69
2023-03-16T00:45:44.792Z,100544.09
2023-03-16T00:48:47.667Z,100555.09
2023-03-16T00:51:50.093Z,100532.19
2023-03-16T00:54:53.180Z,100545.53
2023-03-16T00:57:55.582Z,100550.91
2023-03-16T01:00:59.607Z,100539.50
2023-03-16T01:04:03.656Z,100556.06
2023-03-16T01:07:12.349Z,100548.19
2023-03-16T01:10:14.701Z,100559.16
2023-03-16T01:13:17.053Z,100552.00
2023-03-16T01:16:23.239Z,100557.44
2023-03-16T01:19:25.757Z,100560.22
2023-03-16T01:22:28.846Z,100559.00
2023-03-16T01:25:32.520Z,100556.66
2023-03-16T01:28:35.057Z,100546.75
2023-03-16T01:31:37.461Z,100554.28
2023-03-16T01:34:41.567Z,100567.47
2023-03-16T01:37:45.156Z,100560.81
2023-03-16T01:40:54.792Z,100559.94
2023-03-16T01:43:58.621Z,100567.75
2023-03-16T01:47:01.804Z,100562.16
2023-03-16T01:50:05.336Z,100554.34
2023-03-16T01:53:10.598Z,100565.69
2023-03-16T01:56:15.916Z,100556.94
2023-03-16T01:59:22.354Z,100574.56
2023-03-16T02:02:30.468Z,100579.28
2023-03-16T02:05:38.357Z,100579.22
2023-03-16T02:08:43.383Z,100581.94
2023-03-16T02:11:46.492Z,100584.25
2023-03-16T02:14:51.329Z,100589.53
2023-03-16T02:17:53.933Z,100593.13
2023-03-16T02:21:33.211Z,100602.44
2023-03-16T02:24:37.493Z,100609.03
2023-03-16T02:27:53.562Z,100607.44
2023-03-16T02:30:56.019Z,100601.84
2023-03-16T02:33:58.712Z,100613.53
2023-03-16T02:37:01.141Z,100602.50
2023-03-16T02:40:21.064Z,100617.31
2023-03-16T02:43:28.814Z,100621.97
2023-03-16T02:46:46.635Z,100623.56
2023-03-16T02:49:50.148Z,100636.38
2023-03-16T02:52:52.641Z,100621.81
2023-03-16T02:55:54.994Z,100630.00
2023-03-16T02:58:57.956Z,100622.44
2023-03-16T03:02:01.559Z,100643.50
2023-03-16T03:05:04.054Z,100638.00
2023-03-16T03:08:06.918Z,100654.13
2023-03-16T03:11:09.632Z,100657.22
2023-03-16T03:14:12.561Z,100665.72
2023-03-16T03:17:16.299Z,100661.63
2023-03-16T03:20:19.823Z,100665.13
2023-03-16T03:23:22.574Z,100674.06
2023-03-16T03:26:25.004Z,100680.75
2023-03-16T03:29:34.778Z,100674.00
2023-03-16T03:32:37.341Z,100675.13
2023-03-16T03:35:39.764Z,100689.28
2023-03-16T03:38:42.233Z,100681.28
2023-03-16T03:41:45.532Z,100689.88
2023-03-16T03:44:48.138Z,100693.84
2023-03-16T03:47:51.018Z,100702.72
2023-03-16T03:50:56.073Z,100707.00
2023-03-16T03:54:18.725Z,100693.56
2023-03-16T03:57:28.578Z,100706.91
2023-03-16T04:00:31.246Z,100712.34
2023-03-16T04:03:33.856Z,100718.94
2023-03-16T04:06:36.488Z,100704.47
2023-03-16T04:09:39.013Z,100691.22
2023-03-16T04:12:43.195Z,100712.44
2023-03-16T04:15:47.950Z,100706.25
2023-03-16T04:18:57.243Z,100698.66
2023-03-16T04:21:59.588Z,100721.66
2023-03-16T04:25:04.037Z,100722.84
2023-03-16T04:28:07.714Z,100734.56
2023-03-16T04:31:13.293Z,100732.75
2023-03-16T04:34:19.686Z,100734.47
2023-03-16T04:37:22.445Z,100730.22
2023-03-16T04:40:26.389Z,100740.03
2023-03-16T04:43:37.641Z,100733.78
2023-03-16T04:46:46.327Z,100745.88
2023-03-16T04:49:49.447Z,100747.34
2023-03-16T04:52:52.450Z,100737.72
2023-03-16T04:55:55.665Z,100739.13
2023-03-16T04:58:58.325Z,100748.72
2023-03-16T05:02:04.535Z,100740.59
2023-03-16T05:05:08.067Z,100743.78
2023-03-16T05:08:12.302Z,100743.94
2023-03-16T05:11:16.774Z,100750.28
2023-03-16T05:14:29.130Z,100755.38
2023-03-16T05:17:47.149Z,100755.75
2023-03-16T05:20:53.766Z,100758.34
2023-03-16T05:23:56.852Z,100758.94
2023-03-16T05:26:59.295Z,100772.25
2023-03-16T05:30:01.860Z,100761.59
2023-03-16T05:33:07.409Z,100758.34
2023-03-16T05:36:10.818Z,100778.84
2023-03-16T05:39:15.766Z,100780.53
2023-03-16T05:42:22.396Z,100790.31
2023-03-16T05:45:30.515Z,100791.91
2023-03-16T05:48:44.841Z,100794.19
2023-03-16T05:51:50.726Z,100808.09
2023-03-16T05:54:53.197Z,100812.94
2023-03-16T05:57:55.637Z,100791.75
2023-03-16T06:01:01.864Z,100821.38
2023-03-16T06:04:07.466Z,100824.09
2023-03-16T06:07:13.542Z,100829.69
2023-03-16T06:10:16.445Z,100829.91
2023-03-16T06:13:19.074Z,100839.50
2023-03-16T06:16:21.799Z,100827.50
2023-03-16T06:19:24.379Z,100832.06
2023-03-16T06:22:32.575Z,100848.06
2023-03-16T06:25:35.297Z,100856.00
2023-03-16T06:28:39.786Z,100848.94
2023-03-16T06:31:42.532Z,100855.00
2023-03-16T06:34:46.008Z,100865.31
2023-03-16T06:37:48.521Z,100866.97
2023-03-16T06:41:12.969Z,100863.06
2023-03-16T06:44:15.509Z,100866.53
2023-03-16T06:47:29.115Z,100869.38
2023-03-16T06:50:31.678Z,100877.38
2023-03-16T06:53:34.624Z,100877.91
2023-03-16T06:56:37.359Z,100889.09
2023-03-16T06:59:40.302Z,100879.72
2023-03-16T07:02:44.121Z,100894.72
2023-03-16T07:05:49.042Z,100901.97
2023-03-16T07:08:53.749Z,100909.91
2023-03-16T07:11:58.341Z,100902.91
2023-03-16T07:15:01.713Z,100905.38
2023-03-16T07:18:06.305Z,100902.66
2023-03-16T07:21:09.469Z,100913.50
2023-03-16T07:24:13.167Z,100924.09
2023-03-16T07:27:17.029Z,100911.94
